createdAt,value
2019-04-03T00:00:05.354Z,64
2019-04-03T00:01:05.052Z,64
2019-04-03T00:02:04.992Z,64
2019-04-03T00:03:05.115Z,64
2019-04-03T00:04:05.123Z,64
2019-04-03T00:05:05.336Z,64
2019-04-03T00:06:06.239Z,64
2019-04-03T00:07:06.120Z,64
2019-04-03T00:08:02.860Z,65
2019-04-03T00:09:02.765Z,65
2019-04-03T00:10:03.209Z,65
2019-04-03T00:11:03.499Z,65
2019-04-03T00:12:02.641Z,65
2019-04-03T00:13:03.687Z,65
2019-04-03T00:14:03.514Z,65
2019-04-03T00:15:03.437Z,65
2019-04-03T00:16:02.464Z,65
2019-04-03T00:17:03.437Z,65
2019-04-03T00:18:03.386Z,65
2019-04-03T00:19:03.239Z,65
2019-04-03T00:20:03.235Z,66
2019-04-03T00:21:03.032Z,66
2019-04-03T00:22:03.132Z,66
2019-04-03T00:23:03.156Z,66
2019-04-03T00:24:02.898Z,66
2019-04-03T00:25:02.691Z,66
2019-04-03T00:26:02.998Z,66
2019-04-03T00:27:02.867Z,66
2019-04-03T00:28:03.497Z,66
2019-04-03T00:29:03.057Z,66
2019-04-03T00:30:02.775Z,66
2019-04-03T00:31:03.512Z,66
2019-04-03T00:32:02.766Z,67
2019-04-03T00:33:03.554Z,67
2019-04-03T00:34:02.829Z,67
2019-04-03T00:35:03.816Z,67
2019-04-03T00:36:03.783Z,67
2019-04-03T00:37:03.423Z,67
2019-04-03T00:38:03.602Z,67
2019-04-03T00:39:02.819Z,67
2019-04-03T00:40:02.986Z,67
2019-04-03T00:41:03.301Z,67
2019-04-03T00:42:03.094Z,67
2019-04-03T00:43:03.731Z,68
2019-04-03T00:44:03.319Z,68
2019-04-03T00:45:02.986Z,68
2019-04-03T00:46:02.997Z,68
2019-04-03T00:47:03.469Z,68
2019-04-03T00:48:02.811Z,68
2019-04-03T00:49:03.208Z,68
2019-04-03T00:50:03.064Z,68
2019-04-03T00:51:03.336Z,68
2019-04-03T00:52:02.925Z,68
2019-04-03T00:53:03.110Z,68
2019-04-03T00:54:02.947Z,68
2019-04-03T00:55:03.138Z,68
2019-04-03T00:56:03.085Z,68
2019-04-03T00:57:03.587Z,68
2019-04-03T00:58:02.627Z,68
2019-04-03T00:59:03.416Z,68
2019-04-03T01:00:03.775Z,68
2019-04-03T01:01:03.509Z,68
2019-04-03T01:02:03.653Z,68
2019-04-03T01:03:03.727Z,68
2019-04-03T01:04:03.102Z,68
2019-04-03T01:05:04.215Z,68
2019-04-03T01:06:03.364Z,68
2019-04-03T01:07:03.607Z,68
2019-04-03T01:08:03.014Z,68
2019-04-03T01:09:03.131Z,68
2019-04-03T01:10:03.283Z,68
2019-04-03T01:11:03.217Z,68
2019-04-03T01:12:03.137Z,69
2019-04-03T01:13:02.908Z,69
2019-04-03T01:14:02.606Z,69
2019-04-03T01:15:03.396Z,69
2019-04-03T01:16:03.152Z,69
2019-04-03T01:17:04.834Z,69
2019-04-03T01:18:05.361Z,69
2019-04-03T01:19:06.454Z,69
2019-04-03T01:20:04.465Z,69
2019-04-03T01:21:07.150Z,69
2019-04-03T01:22:03.300Z,69
2019-04-03T01:23:03.049Z,69
2019-04-03T01:24:03.007Z,69
2019-04-03T01:25:03.161Z,69
2019-04-03T01:26:02.927Z,69
2019-04-03T01:27:02.906Z,70
2019-04-03T01:28:03.169Z,70
2019-04-03T01:29:02.901Z,70
2019-04-03T01:30:02.989Z,70
2019-04-03T01:31:02.641Z,70
2019-04-03T01:32:03.807Z,70
2019-04-03T01:33:02.966Z,70
2019-04-03T01:34:02.673Z,70
2019-04-03T01:35:03.815Z,70
2019-04-03T01:36:02.848Z,70
2019-04-03T01:37:03.724Z,70
2019-04-03T01:38:03.408Z,70
2019-04-03T01:39:03.671Z,70
2019-04-03T01:40:03.258Z,71
2019-04-03T01:41:03.124Z,71
2019-04-03T01:42:03.281Z,71
2019-04-03T01:43:02.773Z,71
2019-04-03T01:44:02.925Z,71
2019-04-03T01:45:02.952Z,71
2019-04-03T01:46:02.807Z,71
2019-04-03T01:47:02.667Z,71
2019-04-03T01:48:03.860Z,71
2019-04-03T01:49:02.703Z,71
2019-04-03T01:50:02.910Z,71
2019-04-03T01:51:03.487Z,71
2019-04-03T01:52:03.743Z,72
2019-04-03T01:53:03.465Z,72
2019-04-03T01:54:03.803Z,72
2019-04-03T01:55:04.531Z,72
2019-04-03T01:56:05.405Z,72
2019-04-03T01:57:04.524Z,72
2019-04-03T01:58:07.215Z,71
2019-04-03T01:59:07.540Z,71
2019-04-03T02:00:03.518Z,71
2019-04-03T02:01:03.534Z,71
2019-04-03T02:02:03.251Z,71
2019-04-03T02:03:03.432Z,72
2019-04-03T02:04:03.093Z,72
2019-04-03T02:05:03.247Z,72
2019-04-03T02:06:02.963Z,72
2019-04-03T02:07:03.318Z,72
2019-04-03T02:08:02.955Z,72
2019-04-03T02:09:03.111Z,72
2019-04-03T02:10:02.860Z,72
2019-04-03T02:11:03.058Z,71
2019-04-03T02:12:02.848Z,71
2019-04-03T02:13:02.857Z,71
2019-04-03T02:14:03.710Z,71
2019-04-03T02:15:03.648Z,71
2019-04-03T02:16:03.874Z,72
2019-04-03T02:17:03.828Z,72
2019-04-03T02:18:03.407Z,72
2019-04-03T02:19:03.541Z,72
2019-04-03T02:20:03.845Z,72
2019-04-03T02:21:03.757Z,72
2019-04-03T02:22:03.520Z,72
2019-04-03T02:23:03.085Z,72
2019-04-03T02:24:03.327Z,72
2019-04-03T02:25:03.110Z,72
2019-04-03T02:26:03.471Z,72
2019-04-03T02:27:03.674Z,72
2019-04-03T02:28:04.722Z,72
2019-04-03T02:29:09.220Z,72
2019-04-03T02:30:03.321Z,72
2019-04-03T02:31:03.226Z,72
2019-04-03T02:32:03.049Z,73
2019-04-03T02:33:03.631Z,73
2019-04-03T02:34:03.520Z,73
2019-04-03T02:35:08.608Z,73
2019-04-03T02:36:02.776Z,73
2019-04-03T02:37:02.782Z,73
2019-04-03T02:38:02.879Z,73
2019-04-03T02:39:03.451Z,73
2019-04-03T02:40:03.430Z,73
2019-04-03T02:41:05.593Z,73
2019-04-03T02:42:10.100Z,73
2019-04-03T02:43:03.607Z,73
2019-04-03T02:44:03.740Z,73
2019-04-03T02:45:03.494Z,73
2019-04-03T02:46:03.641Z,73
2019-04-03T02:47:03.348Z,73
2019-04-03T02:48:07.282Z,73
2019-04-03T02:49:02.934Z,73
2019-04-03T02:50:03.617Z,73
2019-04-03T02:51:03.372Z,73
2019-04-03T02:52:03.576Z,73
2019-04-03T02:53:03.052Z,73
2019-04-03T02:54:03.488Z,73
2019-04-03T02:55:09.010Z,73
2019-04-03T02:56:03.554Z,73
2019-04-03T02:57:03.947Z,73
2019-04-03T02:58:02.962Z,73
2019-04-03T02:59:03.690Z,73
2019-04-03T03:00:02.940Z,73
2019-04-03T03:01:08.031Z,73
2019-04-03T03:02:02.981Z,73
2019-04-03T03:03:03.063Z,73
2019-04-03T03:04:03.650Z,73
2019-04-03T03:05:03.545Z,73
2019-04-03T03:06:03.408Z,73
2019-04-03T03:07:05.715Z,73
2019-04-03T03:08:03.671Z,73
2019-04-03T03:09:03.542Z,73
2019-04-03T03:10:04.039Z,73
2019-04-03T03:11:03.520Z,73
2019-04-03T03:12:03.653Z,73
2019-04-03T03:13:03.265Z,73
2019-04-03T03:14:08.397Z,73
2019-04-03T03:15:03.548Z,73
2019-04-03T03:16:03.461Z,73
2019-04-03T03:17:03.577Z,73
2019-04-03T03:18:02.841Z,73
2019-04-03T03:19:03.198Z,73
2019-04-03T03:20:08.126Z,73
2019-04-03T03:21:03.033Z,73
2019-04-03T03:22:02.766Z,73
2019-04-03T03:23:03.117Z,74
2019-04-03T03:24:03.616Z,74
2019-04-03T03:25:02.807Z,74
2019-04-03T03:26:06.392Z,74
2019-04-03T03:27:03.559Z,74
2019-04-03T03:28:03.628Z,74
2019-04-03T03:29:26.889Z,74
2019-04-03T03:30:55.379Z,74
2019-04-03T03:31:08.407Z,74
2019-04-03T03:32:32.301Z,74
2019-04-03T03:33:39.523Z,74
2019-04-03T03:34:06.782Z,74
2019-04-03T03:35:30.015Z,74
2019-04-03T03:36:05.315Z,74
2019-04-03T03:37:04.654Z,74
2019-04-03T03:38:08.256Z,74
2019-04-03T03:39:03.236Z,74
2019-04-03T03:40:03.479Z,74
2019-04-03T03:41:03.616Z,74
2019-04-03T03:42:03.079Z,74
2019-04-03T03:43:07.077Z,74
2019-04-03T03:44:02.472Z,74
2019-04-03T03:45:03.624Z,74
2019-04-03T03:46:03.438Z,74
2019-04-03T03:47:03.203Z,74
2019-04-03T03:48:10.093Z,74
2019-04-03T03:49:03.082Z,74
2019-04-03T03:50:03.433Z,74
2019-04-03T03:51:02.666Z,74
2019-04-03T03:52:06.512Z,74
2019-04-03T03:53:03.103Z,74
2019-04-03T03:54:03.134Z,74
2019-04-03T03:55:02.824Z,74
2019-04-03T03:56:03.213Z,74
2019-04-03T03:57:07.569Z,74
2019-04-03T03:58:03.531Z,75
2019-04-03T03:59:03.544Z,75
2019-04-03T04:00:03.473Z,75
2019-04-03T04:01:03.567Z,75
2019-04-03T04:02:07.004Z,75
2019-04-03T04:03:03.545Z,75
2019-04-03T04:04:03.407Z,75
2019-04-03T04:05:03.500Z,75
2019-04-03T04:06:03.219Z,75
2019-04-03T04:07:05.313Z,75
2019-04-03T04:08:03.322Z,75
2019-04-03T04:09:03.678Z,75
2019-04-03T04:10:03.341Z,75
2019-04-03T04:11:03.557Z,75
2019-04-03T04:12:07.741Z,75
2019-04-03T04:13:03.707Z,75
2019-04-03T04:14:03.157Z,75
2019-04-03T04:15:03.281Z,75
2019-04-03T04:16:05.636Z,75
2019-04-03T04:17:16.699Z,75
2019-04-03T04:18:03.031Z,75
2019-04-03T04:19:02.792Z,75
2019-04-03T04:20:06.449Z,75
2019-04-03T04:21:04.054Z,75
2019-04-03T04:22:03.698Z,75
2019-04-03T04:23:03.144Z,75
2019-04-03T04:24:03.436Z,75
2019-04-03T04:25:03.655Z,75
2019-04-03T04:26:02.699Z,75
2019-04-03T04:27:03.769Z,75
2019-04-03T04:28:02.576Z,75
2019-04-03T04:29:03.014Z,75
2019-04-03T04:30:03.880Z,76
2019-04-03T04:31:03.534Z,75
2019-04-03T04:32:03.384Z,76
2019-04-03T04:33:03.319Z,76
2019-04-03T04:34:03.010Z,76
2019-04-03T04:35:02.884Z,76
2019-04-03T04:36:03.369Z,76
2019-04-03T04:37:03.564Z,76
2019-04-03T04:38:03.065Z,76
2019-04-03T04:39:03.211Z,76
2019-04-03T04:40:03.492Z,76
2019-04-03T04:41:03.423Z,76
2019-04-03T04:42:04.871Z,76
2019-04-03T04:43:08.575Z,76
2019-04-03T04:44:03.259Z,76
2019-04-03T04:45:03.299Z,76
2019-04-03T04:46:02.808Z,76
2019-04-03T04:47:02.924Z,76
2019-04-03T04:48:03.066Z,76
2019-04-03T04:49:03.058Z,76
2019-04-03T04:50:03.218Z,76
2019-04-03T04:51:02.850Z,76
2019-04-03T04:52:02.887Z,76
2019-04-03T04:53:02.712Z,76
2019-04-03T04:54:02.714Z,76
2019-04-03T04:55:03.855Z,76
2019-04-03T04:56:07.733Z,76
2019-04-03T04:57:03.689Z,76
2019-04-03T04:58:05.456Z,76
2019-04-03T04:59:03.789Z,76
2019-04-03T05:00:03.537Z,76
2019-04-03T05:01:02.895Z,76
2019-04-03T05:02:03.313Z,76
2019-04-03T05:03:03.548Z,76
2019-04-03T05:04:03.898Z,76
2019-04-03T05:05:03.775Z,76
2019-04-03T05:06:03.646Z,76
2019-04-03T05:07:02.977Z,76
2019-04-03T05:08:03.634Z,76
2019-04-03T05:09:04.560Z,76
2019-04-03T05:10:06.731Z,76
2019-04-03T05:11:02.948Z,76
2019-04-03T05:12:03.218Z,76
2019-04-03T05:13:02.858Z,76
2019-04-03T05:14:02.822Z,76
2019-04-03T05:15:03.368Z,76
2019-04-03T05:16:03.410Z,76
2019-04-03T05:17:02.973Z,76
2019-04-03T05:18:03.451Z,76
2019-04-03T05:19:19.475Z,76
2019-04-03T05:20:02.735Z,76
2019-04-03T05:21:03.024Z,76
2019-04-03T05:22:02.823Z,76
2019-04-03T05:23:02.996Z,76
2019-04-03T05:24:13.984Z,76
2019-04-03T05:25:03.017Z,76
2019-04-03T05:26:02.629Z,76
2019-04-03T05:27:03.860Z,76
2019-04-03T05:28:04.972Z,76
2019-04-03T05:29:05.149Z,76
2019-04-03T05:30:07.100Z,76
2019-04-03T05:31:03.440Z,76
2019-04-03T05:32:03.602Z,76
2019-04-03T05:33:03.235Z,76
2019-04-03T05:34:02.957Z,76
2019-04-03T05:35:03.311Z,76
2019-04-03T05:36:03.774Z,76
2019-04-03T05:37:03.122Z,76
2019-04-03T05:38:03.436Z,76
2019-04-03T05:39:03.668Z,76
2019-04-03T05:40:03.643Z,76
2019-04-03T05:41:03.028Z,76
2019-04-03T05:42:03.207Z,76
2019-04-03T05:43:03.160Z,76
2019-04-03T05:44:03.458Z,76
2019-04-03T05:45:05.044Z,76
2019-04-03T05:46:06.446Z,76
2019-04-03T05:47:03.044Z,76
2019-04-03T05:48:02.972Z,76
2019-04-03T05:49:02.907Z,76
2019-04-03T05:50:03.692Z,76
2019-04-03T05:51:02.820Z,76
2019-04-03T05:52:04.828Z,76
2019-04-03T05:53:06.974Z,76
2019-04-03T05:54:02.805Z,76
2019-04-03T05:55:03.849Z,76
2019-04-03T05:56:03.384Z,76
2019-04-03T05:57:03.213Z,76
2019-04-03T05:58:03.287Z,76
2019-04-03T05:59:03.311Z,76
2019-04-03T06:00:07.693Z,76
2019-04-03T06:01:11.692Z,76
2019-04-03T06:02:21.969Z,76
2019-04-03T06:03:03.657Z,76
2019-04-03T06:04:03.309Z,76
2019-04-03T06:05:07.666Z,76
2019-04-03T06:06:03.310Z,76
2019-04-03T06:07:03.178Z,76
2019-04-03T06:08:02.807Z,76
2019-04-03T06:09:02.955Z,76
2019-04-03T06:10:03.159Z,76
2019-04-03T06:11:09.838Z,76
2019-04-03T06:12:02.895Z,76
2019-04-03T06:13:06.449Z,76
2019-04-03T06:14:03.024Z,76
2019-04-03T06:15:02.996Z,76
2019-04-03T06:16:03.871Z,76
2019-04-03T06:17:03.044Z,76
2019-04-03T06:18:02.739Z,76
2019-04-03T06:19:07.427Z,76
2019-04-03T06:20:03.604Z,75
2019-04-03T06:21:03.513Z,75
2019-04-03T06:22:03.762Z,75
2019-04-03T06:23:03.343Z,75
2019-04-03T06:24:02.824Z,75
2019-04-03T06:25:03.584Z,75
2019-04-03T06:26:03.609Z,75
2019-04-03T06:27:03.581Z,75
2019-04-03T06:28:03.668Z,75
2019-04-03T06:29:03.973Z,75
2019-04-03T06:30:03.249Z,75
2019-04-03T06:31:03.882Z,75
2019-04-03T06:32:06.558Z,75
2019-04-03T06:33:03.234Z,75
2019-04-03T06:34:05.093Z,75
2019-04-03T06:35:03.281Z,75
2019-04-03T06:36:03.106Z,75
2019-04-03T06:37:03.246Z,75
2019-04-03T06:38:03.557Z,75
2019-04-03T06:39:03.442Z,75
2019-04-03T06:40:04.388Z,75
2019-04-03T06:41:03.162Z,75
2019-04-03T06:42:03.305Z,75
2019-04-03T06:43:03.175Z,74
2019-04-03T06:44:03.134Z,74
2019-04-03T06:45:02.924Z,74
2019-04-03T06:46:02.959Z,73
2019-04-03T06:47:03.087Z,73
2019-04-03T06:48:05.724Z,73
2019-04-03T06:49:02.695Z,73
2019-04-03T06:50:03.503Z,72
2019-04-03T06:51:03.743Z,72
2019-04-03T06:52:03.462Z,72
2019-04-03T06:53:03.502Z,72
2019-04-03T06:54:03.706Z,72
2019-04-03T06:55:04.347Z,72
2019-04-03T06:56:02.959Z,71
2019-04-03T06:57:03.506Z,71
2019-04-03T06:58:03.276Z,71
2019-04-03T06:59:03.273Z,71
2019-04-03T07:00:03.515Z,71
2019-04-03T07:01:03.443Z,71
2019-04-03T07:02:03.679Z,71
2019-04-03T07:03:04.675Z,70
2019-04-03T07:04:07.333Z,70
2019-04-03T07:05:03.527Z,70
2019-04-03T07:06:03.477Z,70
2019-04-03T07:07:03.578Z,70
2019-04-03T07:08:06.498Z,70
2019-04-03T07:09:05.618Z,70
2019-04-03T07:10:09.490Z,70
2019-04-03T07:11:03.006Z,69
2019-04-03T07:12:03.169Z,69
2019-04-03T07:13:03.292Z,69
2019-04-03T07:14:03.805Z,69
2019-04-03T07:15:03.222Z,69
2019-04-03T07:16:03.940Z,69
2019-04-03T07:17:06.509Z,69
2019-04-03T07:18:06.896Z,69
2019-04-03T07:19:03.723Z,68
2019-04-03T07:20:20.789Z,68
2019-04-03T07:21:03.427Z,68
2019-04-03T07:22:03.355Z,68
2019-04-03T07:23:03.202Z,68
2019-04-03T07:24:03.401Z,68
2019-04-03T07:25:04.135Z,68
2019-04-03T07:26:05.755Z,68
2019-04-03T07:27:04.465Z,68
2019-04-03T07:28:03.404Z,67
2019-04-03T07:29:03.542Z,67
2019-04-03T07:30:03.848Z,67
2019-04-03T07:31:03.236Z,67
2019-04-03T07:32:03.091Z,67
2019-04-03T07:33:06.495Z,67
2019-04-03T07:34:04.114Z,67
2019-04-03T07:35:10.522Z,67
2019-04-03T07:36:03.830Z,67
2019-04-03T07:37:03.238Z,66
2019-04-03T07:38:03.856Z,66
2019-04-03T07:39:02.754Z,66
2019-04-03T07:40:03.829Z,66
2019-04-03T07:41:03.092Z,65
2019-04-03T07:42:03.859Z,65
2019-04-03T07:43:03.865Z,65
2019-04-03T07:44:03.835Z,65
2019-04-03T07:45:03.612Z,65
2019-04-03T07:46:04.163Z,65
2019-04-03T07:47:04.867Z,65
2019-04-03T07:48:07.205Z,64
2019-04-03T07:49:02.903Z,64
2019-04-03T07:50:03.600Z,64
2019-04-03T07:51:03.649Z,64
2019-04-03T07:52:03.287Z,64
2019-04-03T07:53:03.444Z,64
2019-04-03T07:54:05.069Z,64
2019-04-03T07:55:03.422Z,64
2019-04-03T07:56:03.113Z,64
2019-04-03T07:57:02.935Z,64
2019-04-03T07:58:04.025Z,64
2019-04-03T07:59:04.740Z,64
2019-04-03T08:00:07.362Z,64
2019-04-03T08:01:02.872Z,64
2019-04-03T08:02:03.285Z,64
2019-04-03T08:03:03.066Z,64
2019-04-03T08:04:02.907Z,64
2019-04-03T08:05:03.769Z,64
2019-04-03T08:06:04.701Z,64
2019-04-03T08:07:03.760Z,64
2019-04-03T08:08:03.029Z,64
2019-04-03T08:09:10.587Z,64
2019-04-03T08:10:03.616Z,64
2019-04-03T08:11:03.292Z,64
2019-04-03T08:12:04.730Z,64
2019-04-03T08:13:06.256Z,64
2019-04-03T08:14:03.485Z,64
2019-04-03T08:15:03.724Z,64
2019-04-03T08:16:03.980Z,64
2019-04-03T08:17:03.553Z,64
2019-04-03T08:18:04.026Z,64
2019-04-03T08:19:03.272Z,64
2019-04-03T08:20:03.249Z,64
2019-04-03T08:21:03.357Z,64
2019-04-03T08:22:03.121Z,64
2019-04-03T08:23:06.900Z,63
2019-04-03T08:24:03.205Z,63
2019-04-03T08:25:03.628Z,63
2019-04-03T08:26:03.342Z,62
2019-04-03T08:27:03.827Z,62
2019-04-03T08:28:03.158Z,62
2019-04-03T08:29:03.272Z,62
2019-04-03T08:30:03.760Z,61
2019-04-03T08:31:03.384Z,61
2019-04-03T08:32:03.263Z,61
2019-04-03T08:33:25.748Z,61
2019-04-03T08:34:18.910Z,61
2019-04-03T08:35:04.984Z,60
2019-04-03T08:36:07.064Z,60
2019-04-03T08:37:04.218Z,60
2019-04-03T08:38:04.027Z,60
2019-04-03T08:39:02.771Z,60
2019-04-03T08:40:03.794Z,60
2019-04-03T08:41:04.583Z,59
2019-04-03T08:42:03.620Z,59
2019-04-03T08:43:03.003Z,59
2019-04-03T08:44:09.350Z,59
2019-04-03T08:45:07.618Z,59
2019-04-03T08:46:03.338Z,59
2019-04-03T08:47:03.443Z,59
2019-04-03T08:48:07.477Z,59
2019-04-03T08:49:03.388Z,59
2019-04-03T08:50:03.313Z,58
2019-04-03T08:51:04.053Z,58
2019-04-03T08:52:06.271Z,58
2019-04-03T08:53:02.860Z,58
2019-04-03T08:54:03.199Z,58
2019-04-03T08:55:03.170Z,57
2019-04-03T08:56:03.654Z,57
2019-04-03T08:57:02.976Z,57
2019-04-03T08:58:02.899Z,56
2019-04-03T08:59:02.954Z,56
2019-04-03T09:00:03.030Z,56
2019-04-03T09:01:05.534Z,56
2019-04-03T09:02:03.262Z,56
2019-04-03T09:03:04.953Z,56
2019-04-03T09:04:03.588Z,55
2019-04-03T09:05:03.649Z,55
2019-04-03T09:06:03.384Z,55
2019-04-03T09:07:03.525Z,55
2019-04-03T09:08:03.014Z,55
2019-04-03T09:09:03.401Z,55
2019-04-03T09:10:03.574Z,55
2019-04-03T09:11:06.005Z,55
2019-04-03T09:12:03.983Z,55
2019-04-03T09:13:24.086Z,55
2019-04-03T09:14:03.622Z,54
2019-04-03T09:15:03.387Z,54
2019-04-03T09:16:03.410Z,54
2019-04-03T09:17:04.153Z,54
2019-04-03T09:18:07.805Z,54
2019-04-03T09:19:02.946Z,54
2019-04-03T09:20:03.054Z,54
2019-04-03T09:21:02.909Z,54
2019-04-03T09:22:03.161Z,53
2019-04-03T09:23:02.936Z,53
2019-04-03T09:24:03.080Z,53
2019-04-03T09:25:03.650Z,53
2019-04-03T09:26:04.020Z,53
2019-04-03T09:27:03.072Z,53
2019-04-03T09:28:03.220Z,53
2019-04-03T09:29:03.730Z,53
2019-04-03T09:30:04.132Z,53
2019-04-03T09:31:03.747Z,53
2019-04-03T09:32:03.155Z,52
2019-04-03T09:33:03.873Z,52
2019-04-03T09:34:03.496Z,52
2019-04-03T09:35:04.192Z,52
2019-04-03T09:36:04.734Z,52
2019-04-03T09:37:07.718Z,52
2019-04-03T09:38:03.566Z,52
2019-04-03T09:39:03.255Z,52
2019-04-03T09:40:03.888Z,51
2019-04-03T09:41:03.392Z,51
2019-04-03T09:42:02.992Z,51
2019-04-03T09:43:03.837Z,52
2019-04-03T09:44:03.589Z,51
2019-04-03T09:45:03.197Z,51
2019-04-03T09:46:03.467Z,51
2019-04-03T09:47:03.939Z,51
2019-04-03T09:48:06.372Z,51
2019-04-03T09:49:02.786Z,51
2019-04-03T09:50:03.248Z,51
2019-04-03T09:51:03.289Z,51
2019-04-03T09:52:02.696Z,51
2019-04-03T09:53:03.607Z,50
2019-04-03T09:54:03.979Z,50
2019-04-03T09:55:03.304Z,50
2019-04-03T09:56:03.663Z,50
2019-04-03T09:57:06.054Z,50
2019-04-03T09:58:05.013Z,50
2019-04-03T09:59:08.142Z,49
2019-04-03T10:00:03.522Z,49
2019-04-03T10:01:02.932Z,49
2019-04-03T10:02:02.932Z,49
2019-04-03T10:03:06.167Z,49
2019-04-03T10:04:03.421Z,48
2019-04-03T10:05:03.768Z,48
2019-04-03T10:06:03.943Z,48
2019-04-03T10:07:04.077Z,48
2019-04-03T10:08:03.881Z,48
2019-04-03T10:09:03.540Z,48
2019-04-03T10:10:04.062Z,48
2019-04-03T10:11:03.647Z,48
2019-04-03T10:12:03.500Z,48
2019-04-03T10:13:03.252Z,48
2019-04-03T10:14:03.260Z,48
2019-04-03T10:15:03.182Z,48
2019-04-03T10:16:04.939Z,48
2019-04-03T10:17:07.899Z,47
2019-04-03T10:18:03.223Z,47
2019-04-03T10:19:03.222Z,47
2019-04-03T10:20:02.777Z,47
2019-04-03T10:21:03.461Z,47
2019-04-03T10:22:03.159Z,47
2019-04-03T10:23:02.715Z,47
2019-04-03T10:24:02.722Z,47
2019-04-03T10:25:06.461Z,47
2019-04-03T10:26:02.849Z,47
2019-04-03T10:27:02.802Z,47
2019-04-03T10:28:03.513Z,46
2019-04-03T10:29:03.092Z,46
2019-04-03T10:30:03.561Z,46
2019-04-03T10:31:03.296Z,46
2019-04-03T10:32:03.806Z,46
2019-04-03T10:33:03.474Z,46
2019-04-03T10:34:04.814Z,46
2019-04-03T10:35:02.827Z,46
2019-04-03T10:36:03.422Z,46
2019-04-03T10:37:03.279Z,45
2019-04-03T10:38:03.395Z,45
2019-04-03T10:39:03.797Z,45
2019-04-03T10:40:03.744Z,45
2019-04-03T10:41:03.292Z,44
2019-04-03T10:42:03.993Z,45
2019-04-03T10:43:06.854Z,45
2019-04-03T10:44:02.891Z,45
2019-04-03T10:45:03.735Z,45
2019-04-03T10:46:03.017Z,45
2019-04-03T10:47:03.050Z,45
2019-04-03T10:48:02.858Z,44
2019-04-03T10:49:03.225Z,43
2019-04-03T10:50:05.915Z,44
2019-04-03T10:51:03.017Z,43
2019-04-03T10:52:02.941Z,42
2019-04-03T10:53:03.471Z,42
2019-04-03T10:54:03.457Z,42
2019-04-03T10:55:02.746Z,41
2019-04-03T10:56:03.350Z,41
2019-04-03T10:57:03.653Z,40
2019-04-03T10:58:09.164Z,40
2019-04-03T10:59:18.398Z,40
2019-04-03T11:00:03.367Z,40
2019-04-03T11:01:02.609Z,40
2019-04-03T11:02:03.679Z,39
2019-04-03T11:03:03.675Z,39
2019-04-03T11:04:02.779Z,39
2019-04-03T11:05:03.956Z,39
2019-04-03T11:06:03.614Z,38
2019-04-03T11:07:03.636Z,38
2019-04-03T11:08:03.735Z,38
2019-04-03T11:09:03.593Z,38
2019-04-03T11:10:03.676Z,37
2019-04-03T11:11:05.268Z,37
2019-04-03T11:12:03.056Z,37
2019-04-03T11:13:04.487Z,37
2019-04-03T11:14:08.624Z,37
2019-04-03T11:15:03.112Z,37
2019-04-03T11:16:03.200Z,37
2019-04-03T11:17:03.153Z,37
2019-04-03T11:18:02.954Z,36
2019-04-03T11:19:08.026Z,36
2019-04-03T11:20:03.225Z,35
2019-04-03T11:21:03.421Z,35
2019-04-03T11:22:03.093Z,35
2019-04-03T11:23:08.997Z,35
2019-04-03T11:24:07.609Z,36
2019-04-03T11:25:03.264Z,36
2019-04-03T11:26:02.837Z,36
2019-04-03T11:27:03.937Z,36
2019-04-03T11:28:07.050Z,36
2019-04-03T11:29:03.315Z,36
2019-04-03T11:30:03.765Z,36
2019-04-03T11:31:03.366Z,36
2019-04-03T11:32:03.681Z,35
2019-04-03T11:33:03.233Z,35
2019-04-03T11:34:03.749Z,35
2019-04-03T11:35:03.750Z,35
2019-04-03T11:36:03.398Z,35
2019-04-03T11:37:04.014Z,35
2019-04-03T11:38:29.123Z,34
2019-04-03T11:39:16.885Z,33
2019-04-03T11:40:06.531Z,34
2019-04-03T11:41:21.468Z,34
2019-04-03T11:42:03.190Z,34
2019-04-03T11:43:03.586Z,34
2019-04-03T11:44:03.075Z,34
2019-04-03T11:45:05.675Z,34
2019-04-03T11:46:02.925Z,34
2019-04-03T11:47:02.825Z,34
2019-04-03T11:48:03.153Z,34
2019-04-03T11:49:03.704Z,34
2019-04-03T11:50:03.822Z,34
2019-04-03T11:51:03.554Z,34
2019-04-03T11:52:04.107Z,34
2019-04-03T11:53:08.483Z,34
2019-04-03T11:54:05.067Z,35
2019-04-03T11:55:03.757Z,35
2019-04-03T11:56:03.684Z,34
2019-04-03T11:57:03.477Z,34
2019-04-03T11:58:02.833Z,34
2019-04-03T11:59:03.486Z,34
2019-04-03T12:00:03.409Z,33
2019-04-03T12:01:03.498Z,34
2019-04-03T12:02:03.111Z,33
2019-04-03T12:03:03.465Z,33
2019-04-03T12:04:03.225Z,33
2019-04-03T12:05:03.386Z,34
2019-04-03T12:06:03.766Z,34
2019-04-03T12:07:03.918Z,34
2019-04-03T12:08:03.383Z,34
2019-04-03T12:09:03.436Z,34
2019-04-03T12:10:04.954Z,34
2019-04-03T12:11:07.580Z,34
2019-04-03T12:12:02.880Z,33
2019-04-03T12:13:04.900Z,34
2019-04-03T12:14:03.019Z,34
2019-04-03T12:15:03.494Z,34
2019-04-03T12:16:02.941Z,33
2019-04-03T12:17:03.556Z,33
2019-04-03T12:18:03.080Z,34
2019-04-03T12:19:06.577Z,33
2019-04-03T12:20:03.223Z,33
2019-04-03T12:21:03.685Z,33
2019-04-03T12:22:04.519Z,33
2019-04-03T12:23:04.051Z,32
2019-04-03T12:24:03.372Z,32
2019-04-03T12:25:04.023Z,33
2019-04-03T12:26:03.942Z,33
2019-04-03T12:27:03.483Z,33
2019-04-03T12:28:07.599Z,33
2019-04-03T12:29:05.591Z,33
2019-04-03T12:30:03.455Z,33
2019-04-03T12:31:02.952Z,33
2019-04-03T12:32:09.114Z,33
2019-04-03T12:33:03.675Z,32
2019-04-03T12:34:07.641Z,32
2019-04-03T12:35:03.502Z,32
2019-04-03T12:36:07.428Z,32
2019-04-03T12:37:03.803Z,33
2019-04-03T12:38:02.835Z,33
2019-04-03T12:39:03.209Z,33
2019-04-03T12:40:02.874Z,33
2019-04-03T12:41:06.153Z,33
2019-04-03T12:42:02.743Z,31
2019-04-03T12:43:03.405Z,30
2019-04-03T12:44:03.669Z,30
2019-04-03T12:45:03.649Z,30
2019-04-03T12:46:03.812Z,30
2019-04-03T12:47:14.196Z,32
2019-04-03T12:48:03.693Z,32
2019-04-03T12:49:08.730Z,32
2019-04-03T12:50:04.146Z,32
2019-04-03T12:51:03.370Z,33
2019-04-03T12:52:05.322Z,33
2019-04-03T12:53:03.396Z,32
2019-04-03T12:54:03.111Z,32
2019-04-03T12:55:03.333Z,32
2019-04-03T12:56:03.035Z,32
2019-04-03T12:57:03.508Z,32
2019-04-03T12:58:06.424Z,33
2019-04-03T12:59:03.404Z,33
2019-04-03T13:00:03.054Z,32
2019-04-03T13:01:02.908Z,32
2019-04-03T13:02:02.850Z,32
2019-04-03T13:03:03.611Z,32
2019-04-03T13:04:03.759Z,32
2019-04-03T13:05:07.958Z,32
2019-04-03T13:06:03.033Z,32
2019-04-03T13:07:06.529Z,32
2019-04-03T13:08:03.229Z,32
2019-04-03T13:09:04.062Z,32
2019-04-03T13:10:08.735Z,32
2019-04-03T13:11:03.056Z,32
2019-04-03T13:12:04.141Z,32
2019-04-03T13:13:03.635Z,32
2019-04-03T13:14:03.734Z,32
2019-04-03T13:15:07.023Z,32
2019-04-03T13:16:03.177Z,32
2019-04-03T13:17:04.008Z,32
2019-04-03T13:18:03.470Z,32
2019-04-03T13:19:03.071Z,30
2019-04-03T13:20:06.746Z,30
2019-04-03T13:21:03.382Z,30
2019-04-03T13:22:03.095Z,31
2019-04-03T13:23:03.281Z,32
2019-04-03T13:24:03.607Z,32
2019-04-03T13:25:03.218Z,32
2019-04-03T13:26:03.313Z,32
2019-04-03T13:27:02.792Z,32
2019-04-03T13:28:05.063Z,31
2019-04-03T13:29:09.455Z,31
2019-04-03T13:30:14.485Z,31
2019-04-03T13:31:03.674Z,29
2019-04-03T13:32:03.122Z,29
2019-04-03T13:33:08.028Z,29
2019-04-03T13:34:02.830Z,30
2019-04-03T13:35:06.499Z,30
2019-04-03T13:36:04.125Z,29
2019-04-03T13:37:03.509Z,28
2019-04-03T13:38:04.180Z,28
2019-04-03T13:39:03.672Z,29
2019-04-03T13:40:07.591Z,29
2019-04-03T13:41:05.887Z,29
2019-04-03T13:42:03.324Z,29
2019-04-03T13:43:03.187Z,29
2019-04-03T13:44:03.407Z,29
2019-04-03T13:45:03.211Z,29
2019-04-03T13:46:05.935Z,30
2019-04-03T13:47:03.144Z,30
2019-04-03T13:48:03.415Z,30
2019-04-03T13:49:02.918Z,29
2019-04-03T13:50:03.819Z,28
2019-04-03T13:51:03.126Z,28
2019-04-03T13:52:10.804Z,29
2019-04-03T13:53:03.009Z,29
2019-04-03T13:54:03.155Z,29
2019-04-03T13:55:03.717Z,29
2019-04-03T13:56:11.896Z,29
2019-04-03T13:57:03.223Z,29
2019-04-03T13:58:03.548Z,29
2019-04-03T13:59:03.383Z,29
2019-04-03T14:00:23.819Z,29
2019-04-03T14:01:10.141Z,29
2019-04-03T14:02:03.677Z,29
2019-04-03T14:03:03.097Z,29
2019-04-03T14:04:03.868Z,29
2019-04-03T14:05:03.444Z,29
2019-04-03T14:06:06.058Z,29
2019-04-03T14:07:09.366Z,29
2019-04-03T14:08:08.368Z,29
2019-04-03T14:09:03.235Z,29
2019-04-03T14:10:03.394Z,29
2019-04-03T14:11:02.817Z,28
2019-04-03T14:12:07.150Z,28
2019-04-03T14:13:03.102Z,29
2019-04-03T14:14:03.186Z,29
2019-04-03T14:15:05.679Z,29